Terminal Aerodrome Forecast
Issued by NWS

Home | Current Version | Previous Version | Text Only | Print | Product List | Glossary On
Versions: 1 2 3 4 5 6 7 8 9 10 11 12 13 14 15 16 17 18 19 20 21 22 23 24 25
000
FTUS45 KBOU 191739
TAFBJC
TAF
KBJC 191739Z 1918/2018 VRB04KT P6SM FEW140 SCT220
     FM191900 33006KT P6SM FEW140 BKN200
     FM192000 02008KT P6SM FEW130 BKN200
     FM192200 08007KT P6SM FEW130 BKN220
     FM200200 VRB05KT P6SM FEW140 SCT220
     FM200600 25007KT P6SM FEW220
     FM201700 14007KT P6SM FEW120 SCT220=

USA.gov is the U.S. government's official web portal to all federal, state and local government web resources and services.